createdAt,value
2018-01-27T00:00:18.647Z,4.46
2018-01-27T00:01:18.931Z,4.53
2018-01-27T00:02:18.646Z,4.47
2018-01-27T00:03:18.880Z,4.53
2018-01-27T00:04:18.921Z,4.53
2018-01-27T00:05:18.845Z,4.44
2018-01-27T00:06:18.833Z,4.58
2018-01-27T00:07:18.554Z,4.46
2018-01-27T00:08:18.845Z,4.56
2018-01-27T00:09:18.516Z,4.53
2018-01-27T00:10:18.786Z,4.48
2018-01-27T00:11:18.766Z,4.53
2018-01-27T00:12:18.732Z,4.44
2018-01-27T00:13:18.455Z,4.53
2018-01-27T00:14:18.977Z,4.48
2018-01-27T00:15:18.483Z,4.53
2018-01-27T00:16:18.403Z,4.5
2018-01-27T00:17:18.654Z,4.54
2018-01-27T00:18:18.380Z,4.48
2018-01-27T00:19:18.907Z,4.57
2018-01-27T00:20:18.341Z,4.54
2018-01-27T00:21:18.645Z,4.53
2018-01-27T00:22:18.583Z,4.5
2018-01-27T00:23:18.584Z,4.47
2018-01-27T00:24:18.828Z,4.57
2018-01-27T00:25:18.276Z,4.53
2018-01-27T00:26:18.252Z,4.47
2018-01-27T00:27:18.536Z,4.51
2018-01-27T00:28:18.487Z,4.44
2018-01-27T00:29:18.252Z,4.54
2018-01-27T00:30:18.187Z,4.53
2018-01-27T00:31:18.180Z,4.46
2018-01-27T00:32:18.442Z,4.51
2018-01-27T00:33:18.181Z,4.48
2018-01-27T00:34:18.414Z,4.48
2018-01-27T00:35:18.125Z,4.5
2018-01-27T00:36:18.102Z,4.48
2018-01-27T00:37:18.375Z,4.46
2018-01-27T00:38:18.068Z,4.39
2018-01-27T00:39:18.053Z,4.44
2018-01-27T00:40:18.041Z,4.44
2018-01-27T00:41:18.298Z,4.36
2018-01-27T00:42:18.297Z,4.36
2018-01-27T00:43:17.997Z,4.38
2018-01-27T00:44:17.987Z,4.39
2018-01-27T00:45:18.505Z,4.26
2018-01-27T00:46:18.492Z,4.3
2018-01-27T00:47:17.954Z,4.29
2018-01-27T00:48:17.921Z,4.36
2018-01-27T00:49:17.927Z,4.26
2018-01-27T00:50:17.901Z,4.33
2018-01-27T00:51:18.433Z,4.24
2018-01-27T00:52:17.872Z,4.38
2018-01-27T00:53:17.840Z,4.3
2018-01-27T00:54:18.367Z,4.29
2018-01-27T00:55:18.083Z,4.28
2018-01-27T00:56:17.807Z,4.26
2018-01-27T00:57:17.797Z,4.33
2018-01-27T00:58:17.778Z,4.3
2018-01-27T00:59:18.036Z,4.3
2018-01-27T01:00:17.742Z,4.36
2018-01-27T01:01:18.027Z,4.29
2018-01-27T01:02:17.982Z,4.33
2018-01-27T01:03:17.700Z,4.22
2018-01-27T01:04:17.960Z,4.2
2018-01-27T01:05:17.662Z,4.29
2018-01-27T01:06:18.005Z,4.29
2018-01-27T01:07:17.767Z,4.18
2018-01-27T01:08:17.889Z,4.18
2018-01-27T01:09:17.600Z,4.18
2018-01-27T01:10:17.586Z,4.21
2018-01-27T01:11:17.573Z,4.32
2018-01-27T01:12:17.855Z,4.24
2018-01-27T01:13:17.544Z,4.18
2018-01-27T01:14:17.533Z,4.26
2018-01-27T01:15:17.512Z,4.24
2018-01-27T01:16:17.777Z,4.28
2018-01-27T01:17:17.760Z,4.28
2018-01-27T01:18:17.738Z,4.17
2018-01-27T01:19:17.464Z,4.21
2018-01-27T01:20:18.008Z,4.26
2018-01-27T01:21:17.730Z,4.18
2018-01-27T01:22:17.410Z,4.35
2018-01-27T01:23:17.392Z,4.3
2018-01-27T01:24:17.567Z,4.26
2018-01-27T01:25:17.361Z,4.36
2018-01-27T01:26:17.624Z,4.26
2018-01-27T01:27:17.604Z,4.38
2018-01-27T01:28:17.612Z,4.3
2018-01-27T01:29:17.321Z,4.28
2018-01-27T01:30:17.559Z,4.26
2018-01-27T01:31:17.289Z,4.33
2018-01-27T01:32:17.266Z,4.29
2018-01-27T01:33:17.238Z,4.33
2018-01-27T01:34:17.238Z,4.3
2018-01-27T01:35:17.501Z,4.33
2018-01-27T01:36:17.483Z,4.32
2018-01-27T01:37:17.461Z,4.32
2018-01-27T01:38:17.435Z,4.38
2018-01-27T01:39:17.146Z,4.36
2018-01-27T01:40:17.433Z,4.36
2018-01-27T01:41:17.392Z,4.39
2018-01-27T01:42:17.378Z,4.39
2018-01-27T01:43:17.129Z,4.29
2018-01-27T01:44:17.073Z,4.28
2018-01-27T01:45:17.085Z,4.29
2018-01-27T01:46:17.587Z,4.28
2018-01-27T01:47:17.324Z,4.3
2018-01-27T01:48:17.341Z,4.28
2018-01-27T01:49:17.000Z,4.3
2018-01-27T01:50:17.003Z,4.3
2018-01-27T01:51:16.967Z,4.28
2018-01-27T01:52:17.248Z,4.22
2018-01-27T01:53:17.234Z,4.35
2018-01-27T01:54:17.199Z,4.3
2018-01-27T01:55:17.458Z,4.32
2018-01-27T01:56:16.894Z,4.38
2018-01-27T01:57:16.880Z,4.35
2018-01-27T01:58:16.866Z,4.35
2018-01-27T01:59:16.848Z,4.4
2018-01-27T02:00:17.105Z,4.4
2018-01-27T02:01:17.129Z,4.39
2018-01-27T02:02:17.074Z,4.38
2018-01-27T02:03:17.087Z,4.33
2018-01-27T02:04:16.779Z,4.39
2018-01-27T02:05:16.778Z,4.33
2018-01-27T02:06:16.743Z,4.35
2018-01-27T02:07:17.310Z,4.26
2018-01-27T02:08:16.985Z,4.24
2018-01-27T02:09:17.254Z,4.26
2018-01-27T02:10:16.687Z,4.24
2018-01-27T02:11:16.684Z,4.26
2018-01-27T02:12:16.931Z,4.28
2018-01-27T02:13:16.659Z,4.29
2018-01-27T02:14:16.624Z,4.33
2018-01-27T02:15:16.607Z,4.28
2018-01-27T02:16:17.149Z,4.21
2018-01-27T02:17:16.579Z,4.29
2018-01-27T02:18:17.136Z,4.29
2018-01-27T02:19:16.565Z,4.26
2018-01-27T02:20:17.134Z,4.3
2018-01-27T02:21:16.527Z,4.26
2018-01-27T02:22:16.774Z,4.32
2018-01-27T02:23:16.762Z,4.36
2018-01-27T02:24:16.748Z,4.36
2018-01-27T02:25:16.729Z,4.36
2018-01-27T02:26:16.463Z,4.32
2018-01-27T02:27:16.717Z,4.39
2018-01-27T02:28:16.413Z,4.3
2018-01-27T02:29:16.683Z,4.36
2018-01-27T02:30:16.670Z,4.29
2018-01-27T02:31:16.923Z,4.28
2018-01-27T02:32:16.628Z,4.38
2018-01-27T02:33:16.611Z,4.36
2018-01-27T02:34:16.623Z,4.32
2018-01-27T02:35:16.309Z,4.29
2018-01-27T02:36:16.318Z,4.35
2018-01-27T02:37:16.554Z,4.36
2018-01-27T02:38:16.275Z,4.26
2018-01-27T02:39:16.525Z,4.28
2018-01-27T02:40:16.774Z,4.32
2018-01-27T02:41:16.228Z,4.28
2018-01-27T02:42:16.226Z,4.26
2018-01-27T02:43:16.460Z,4.36
2018-01-27T02:44:16.448Z,4.35
2018-01-27T02:45:16.437Z,4.35
2018-01-27T02:46:16.457Z,4.33
2018-01-27T02:47:16.131Z,4.4
2018-01-27T02:48:16.126Z,4.3
2018-01-27T02:49:16.666Z,4.36
2018-01-27T02:50:16.382Z,4.32
2018-01-27T02:51:16.347Z,4.39
2018-01-27T02:52:16.343Z,4.36
2018-01-27T02:53:16.361Z,4.36
2018-01-27T02:54:16.025Z,4.44
2018-01-27T02:55:16.026Z,4.42
2018-01-27T02:56:16.535Z,4.4
2018-01-27T02:57:16.263Z,4.47
2018-01-27T02:58:15.972Z,4.48
2018-01-27T02:59:15.948Z,4.39
2018-01-27T03:00:15.934Z,4.46
2018-01-27T03:01:15.922Z,4.47
2018-01-27T03:02:16.173Z,4.44
2018-01-27T03:03:16.181Z,4.48
2018-01-27T03:04:15.871Z,4.4
2018-01-27T03:05:16.126Z,4.4
2018-01-27T03:06:15.845Z,4.54
2018-01-27T03:07:15.832Z,4.47
2018-01-27T03:08:15.830Z,4.5
2018-01-27T03:09:15.796Z,4.46
2018-01-27T03:10:15.782Z,4.42
2018-01-27T03:11:16.058Z,4.4
2018-01-27T03:12:16.318Z,4.44
2018-01-27T03:13:16.296Z,4.42
2018-01-27T03:14:15.725Z,4.48
2018-01-27T03:15:15.997Z,4.48
2018-01-27T03:16:15.694Z,4.54
2018-01-27T03:17:15.699Z,4.48
2018-01-27T03:18:15.940Z,4.48
2018-01-27T03:19:15.652Z,4.57
2018-01-27T03:20:15.915Z,4.5
2018-01-27T03:21:15.624Z,4.48
2018-01-27T03:22:15.603Z,4.47
2018-01-27T03:23:15.589Z,4.47
2018-01-27T03:24:15.869Z,4.47
2018-01-27T03:25:15.564Z,4.48
2018-01-27T03:26:15.545Z,4.36
2018-01-27T03:27:16.074Z,4.44
2018-01-27T03:28:15.807Z,4.46
2018-01-27T03:29:15.503Z,4.44
2018-01-27T03:30:15.488Z,4.42
2018-01-27T03:31:15.474Z,4.48
2018-01-27T03:32:15.738Z,4.42
2018-01-27T03:33:15.440Z,4.47
2018-01-27T03:34:15.722Z,4.47
2018-01-27T03:35:15.446Z,4.48
2018-01-27T03:36:15.390Z,4.48
2018-01-27T03:37:15.400Z,4.47
2018-01-27T03:38:15.633Z,4.5
2018-01-27T03:39:15.350Z,4.48
2018-01-27T03:40:15.620Z,4.46
2018-01-27T03:41:15.318Z,4.4
2018-01-27T03:42:15.572Z,4.47
2018-01-27T03:43:15.834Z,4.48
2018-01-27T03:44:15.547Z,4.44
2018-01-27T03:45:15.259Z,4.44
2018-01-27T03:46:15.270Z,4.47
2018-01-27T03:47:15.536Z,4.48
2018-01-27T03:48:15.773Z,4.5
2018-01-27T03:49:15.197Z,4.5
2018-01-27T03:50:15.184Z,4.48
2018-01-27T03:51:15.165Z,4.53
2018-01-27T03:52:15.427Z,4.48
2018-01-27T03:53:15.146Z,4.53
2018-01-27T03:54:15.397Z,4.5
2018-01-27T03:55:15.380Z,4.46
2018-01-27T03:56:15.095Z,4.56
2018-01-27T03:57:15.349Z,4.48
2018-01-27T03:58:15.062Z,4.53
2018-01-27T03:59:15.316Z,4.48
2018-01-27T04:00:15.304Z,4.5
2018-01-27T04:01:15.018Z,4.56
2018-01-27T04:02:14.999Z,4.47
2018-01-27T04:03:15.283Z,4.58
2018-01-27T04:04:14.988Z,4.54
2018-01-27T04:05:15.267Z,4.51
2018-01-27T04:06:14.941Z,4.5
2018-01-27T04:07:15.468Z,4.53
2018-01-27T04:08:15.417Z,4.53
2018-01-27T04:09:14.893Z,4.46
2018-01-27T04:10:14.886Z,4.5
2018-01-27T04:11:14.877Z,4.51
2018-01-27T04:12:15.122Z,4.46
2018-01-27T04:13:14.838Z,4.58
2018-01-27T04:14:15.099Z,4.46
2018-01-27T04:15:15.075Z,4.46
2018-01-27T04:16:14.796Z,4.48
2018-01-27T04:17:15.321Z,4.58
2018-01-27T04:18:14.775Z,4.51
2018-01-27T04:19:14.746Z,4.56
2018-01-27T04:20:14.733Z,4.56
2018-01-27T04:21:14.721Z,4.5
2018-01-27T04:22:14.785Z,4.58
2018-01-27T04:23:14.683Z,4.58
2018-01-27T04:24:14.957Z,4.48
2018-01-27T04:25:14.932Z,4.5
2018-01-27T04:26:15.184Z,4.47
2018-01-27T04:27:14.641Z,4.54
2018-01-27T04:28:14.610Z,4.47
2018-01-27T04:29:14.614Z,4.53
2018-01-27T04:30:14.597Z,4.58
2018-01-27T04:31:15.109Z,4.51
2018-01-27T04:32:14.826Z,4.48
2018-01-27T04:33:14.571Z,4.51
2018-01-27T04:34:14.522Z,4.51
2018-01-27T04:35:14.522Z,4.51
2018-01-27T04:36:14.491Z,4.5
2018-01-27T04:37:14.745Z,4.5
2018-01-27T04:38:14.459Z,4.51
2018-01-27T04:39:14.443Z,4.5
2018-01-27T04:40:14.711Z,4.46
2018-01-27T04:41:14.690Z,4.48
2018-01-27T04:42:14.670Z,4.48
2018-01-27T04:43:14.391Z,4.47
2018-01-27T04:44:14.372Z,4.57
2018-01-27T04:45:14.626Z,4.58
2018-01-27T04:46:14.625Z,4.57
2018-01-27T04:47:14.935Z,4.51
2018-01-27T04:48:14.855Z,4.53
2018-01-27T04:49:14.570Z,4.53
2018-01-27T04:50:14.571Z,4.48
2018-01-27T04:51:14.267Z,4.51
2018-01-27T04:52:14.529Z,4.53
2018-01-27T04:53:14.234Z,4.47
2018-01-27T04:54:14.489Z,4.6
2018-01-27T04:55:14.269Z,4.53
2018-01-27T04:56:14.202Z,4.53
2018-01-27T04:57:14.181Z,4.58
2018-01-27T04:58:14.447Z,4.47
2018-01-27T04:59:14.144Z,4.51
2018-01-27T05:00:14.177Z,4.61
2018-01-27T05:01:14.408Z,4.46
2018-01-27T05:02:14.120Z,4.5
2018-01-27T05:03:14.085Z,4.47
2018-01-27T05:04:14.340Z,4.51
2018-01-27T05:05:14.619Z,4.51
2018-01-27T05:06:14.311Z,4.48
2018-01-27T05:07:14.034Z,4.51
2018-01-27T05:08:14.010Z,4.47
2018-01-27T05:09:14.290Z,4.48
2018-01-27T05:10:13.984Z,4.48
2018-01-27T05:11:13.981Z,4.51
2018-01-27T05:12:14.259Z,4.47
2018-01-27T05:13:13.936Z,4.53
2018-01-27T05:14:14.189Z,4.56
2018-01-27T05:15:13.906Z,4.5
2018-01-27T05:16:14.159Z,4.56
2018-01-27T05:17:14.151Z,4.54
2018-01-27T05:18:14.133Z,4.5
2018-01-27T05:19:13.858Z,4.5
2018-01-27T05:20:13.832Z,4.48
2018-01-27T05:21:13.843Z,4.48
2018-01-27T05:22:13.843Z,4.51
2018-01-27T05:23:13.785Z,4.54
2018-01-27T05:24:14.068Z,4.48
2018-01-27T05:25:13.761Z,4.5
2018-01-27T05:26:14.017Z,4.51
2018-01-27T05:27:14.020Z,4.53
2018-01-27T05:28:13.723Z,4.54
2018-01-27T05:29:13.698Z,4.53
2018-01-27T05:30:13.686Z,4.56
2018-01-27T05:31:13.693Z,4.51
2018-01-27T05:32:13.672Z,4.5
2018-01-27T05:33:13.916Z,4.48
2018-01-27T05:34:13.626Z,4.6
2018-01-27T05:35:13.900Z,4.65
2018-01-27T05:36:13.591Z,4.66
2018-01-27T05:37:13.851Z,4.46
2018-01-27T05:38:14.102Z,4.64
2018-01-27T05:39:13.818Z,4.48
2018-01-27T05:40:14.090Z,4.64
2018-01-27T05:41:13.521Z,4.5
2018-01-27T05:42:13.776Z,4.56
2018-01-27T05:43:13.491Z,4.66
2018-01-27T05:44:14.019Z,4.64
2018-01-27T05:45:13.472Z,4.66
2018-01-27T05:46:13.451Z,4.58
2018-01-27T05:47:13.429Z,4.46
2018-01-27T05:48:13.420Z,4.6
2018-01-27T05:49:13.397Z,4.54
2018-01-27T05:50:13.387Z,4.51
2018-01-27T05:51:13.371Z,4.6
2018-01-27T05:52:13.357Z,4.46
2018-01-27T05:53:13.614Z,4.61
2018-01-27T05:54:13.327Z,4.56
2018-01-27T05:55:13.314Z,4.51
2018-01-27T05:56:13.577Z,4.5
2018-01-27T05:57:13.281Z,4.56
2018-01-27T05:58:13.545Z,4.51
2018-01-27T05:59:13.804Z,4.46
2018-01-27T06:00:13.238Z,4.54
2018-01-27T06:01:13.498Z,4.56
2018-01-27T06:02:13.477Z,4.47
2018-01-27T06:03:13.752Z,4.51
2018-01-27T06:04:13.178Z,4.5
2018-01-27T06:05:13.482Z,4.53
2018-01-27T06:06:13.435Z,4.42
2018-01-27T06:07:13.446Z,4.48
2018-01-27T06:08:13.139Z,4.64
2018-01-27T06:09:13.105Z,4.65
2018-01-27T06:10:13.633Z,4.6
2018-01-27T06:11:13.094Z,4.58
2018-01-27T06:12:13.060Z,4.53
2018-01-27T06:13:13.042Z,4.56
2018-01-27T06:14:13.033Z,4.5
2018-01-27T06:15:13.295Z,4.46
2018-01-27T06:16:13.292Z,4.53
2018-01-27T06:17:12.983Z,4.66
2018-01-27T06:18:12.971Z,4.46
2018-01-27T06:19:13.494Z,4.58
2018-01-27T06:20:13.216Z,4.61
2018-01-27T06:21:13.226Z,4.6
2018-01-27T06:22:12.920Z,4.64
2018-01-27T06:23:12.900Z,4.58
2018-01-27T06:24:12.882Z,4.64
2018-01-27T06:25:12.866Z,4.51
2018-01-27T06:26:12.849Z,4.58
2018-01-27T06:27:13.119Z,4.61
2018-01-27T06:28:12.821Z,4.61
2018-01-27T06:29:12.823Z,4.56
2018-01-27T06:30:13.069Z,4.57
2018-01-27T06:31:12.780Z,4.61
2018-01-27T06:32:13.036Z,4.56
2018-01-27T06:33:13.019Z,4.54
2018-01-27T06:34:13.009Z,4.6
2018-01-27T06:35:12.723Z,4.64
2018-01-27T06:36:12.703Z,4.65
2018-01-27T06:37:12.707Z,4.65
2018-01-27T06:38:12.670Z,4.51
2018-01-27T06:39:12.656Z,4.56
2018-01-27T06:40:13.179Z,4.51
2018-01-27T06:41:12.635Z,4.47
2018-01-27T06:42:12.633Z,4.51
2018-01-27T06:43:12.595Z,4.53
2018-01-27T06:44:12.581Z,4.51
2018-01-27T06:45:12.568Z,4.42
2018-01-27T06:46:12.829Z,4.35
2018-01-27T06:47:12.558Z,4.32
2018-01-27T06:48:12.521Z,4.38
2018-01-27T06:49:12.819Z,4.36
2018-01-27T06:50:12.788Z,4.32
2018-01-27T06:51:12.752Z,4.24
2018-01-27T06:52:12.731Z,4.29
2018-01-27T06:53:12.447Z,4.29
2018-01-27T06:54:12.450Z,4.28
2018-01-27T06:55:12.418Z,4.28
2018-01-27T06:56:12.672Z,4.26
2018-01-27T06:57:12.692Z,4.29
2018-01-27T06:58:12.374Z,4.28
2018-01-27T06:59:12.630Z,4.36
2018-01-27T07:00:12.627Z,4.3
2018-01-27T07:01:12.345Z,4.3
2018-01-27T07:02:12.615Z,4.3
2018-01-27T07:03:12.573Z,4.36
2018-01-27T07:04:12.839Z,4.35
2018-01-27T07:05:12.836Z,4.35
2018-01-27T07:06:12.254Z,4.36
2018-01-27T07:07:12.786Z,4.38
2018-01-27T07:08:12.235Z,4.42
2018-01-27T07:09:12.763Z,4.42
2018-01-27T07:10:12.196Z,4.4
2018-01-27T07:11:12.195Z,4.5
2018-01-27T07:12:12.442Z,4.47
2018-01-27T07:13:12.151Z,4.51
2018-01-27T07:14:12.131Z,4.46
2018-01-27T07:15:12.125Z,4.57
2018-01-27T07:16:12.120Z,4.53
2018-01-27T07:17:12.091Z,4.54
2018-01-27T07:18:12.356Z,4.51
2018-01-27T07:19:12.060Z,4.54
2018-01-27T07:20:12.049Z,4.53
2018-01-27T07:21:12.304Z,4.53
2018-01-27T07:22:12.018Z,4.6
2018-01-27T07:23:12.275Z,4.56
2018-01-27T07:24:12.537Z,4.66
2018-01-27T07:25:12.245Z,4.61
2018-01-27T07:26:12.275Z,4.57
2018-01-27T07:27:12.216Z,4.64
2018-01-27T07:28:12.479Z,4.58
2018-01-27T07:29:11.911Z,4.58
2018-01-27T07:30:11.902Z,4.64
2018-01-27T07:31:12.153Z,4.66
2018-01-27T07:32:11.913Z,4.61
2018-01-27T07:33:12.129Z,4.66
2018-01-27T07:34:12.396Z,4.65
2018-01-27T07:35:11.824Z,4.72
2018-01-27T07:36:12.099Z,4.76
2018-01-27T07:37:11.799Z,4.71
2018-01-27T07:38:12.051Z,4.68
2018-01-27T07:39:12.044Z,4.65
2018-01-27T07:40:12.032Z,4.64
2018-01-27T07:41:12.058Z,4.66
2018-01-27T07:42:11.721Z,4.66
2018-01-27T07:43:11.707Z,4.66
2018-01-27T07:44:11.987Z,4.69
2018-01-27T07:45:11.950Z,4.69
2018-01-27T07:46:11.952Z,4.76
2018-01-27T07:47:11.929Z,4.79
2018-01-27T07:48:11.641Z,4.74
2018-01-27T07:49:11.622Z,4.87
2018-01-27T07:50:11.612Z,4.75
2018-01-27T07:51:12.151Z,4.92
2018-01-27T07:52:11.586Z,4.88
2018-01-27T07:53:11.566Z,4.91
2018-01-27T07:54:11.545Z,4.94
2018-01-27T07:55:11.537Z,4.98
2018-01-27T07:56:11.808Z,4.94
2018-01-27T07:57:11.500Z,5
2018-01-27T07:58:12.033Z,5.06
2018-01-27T07:59:11.757Z,4.92
2018-01-27T08:00:11.743Z,4.98
2018-01-27T08:01:11.715Z,4.95
2018-01-27T08:02:11.968Z,4.97
2018-01-27T08:03:11.421Z,4.95
2018-01-27T08:04:11.400Z,5
2018-01-27T08:05:11.664Z,4.95
2018-01-27T08:06:11.682Z,5
2018-01-27T08:07:11.359Z,5
2018-01-27T08:08:11.615Z,5.02
2018-01-27T08:09:11.746Z,4.95
2018-01-27T08:10:11.311Z,4.98
2018-01-27T08:11:11.317Z,4.92
2018-01-27T08:12:11.292Z,4.94
2018-01-27T08:13:11.549Z,4.94
2018-01-27T08:14:11.256Z,4.97
2018-01-27T08:15:11.516Z,4.95
2018-01-27T08:16:11.248Z,4.97
2018-01-27T08:17:11.209Z,5.05
2018-01-27T08:18:11.500Z,5
2018-01-27T08:19:11.489Z,5
2018-01-27T08:20:11.176Z,5.05
2018-01-27T08:21:11.175Z,5.09
2018-01-27T08:22:11.411Z,5.05
2018-01-27T08:23:11.667Z,5.02
2018-01-27T08:24:11.107Z,5.12
2018-01-27T08:25:11.372Z,5.15
2018-01-27T08:26:11.619Z,5.15
2018-01-27T08:27:11.338Z,5.15
2018-01-27T08:28:11.360Z,5.15
2018-01-27T08:29:11.031Z,5.15
2018-01-27T08:30:11.307Z,5.15
2018-01-27T08:31:11.017Z,5.23
2018-01-27T08:32:11.264Z,5.21
2018-01-27T08:33:10.981Z,5.09
2018-01-27T08:34:11.234Z,5.3
2018-01-27T08:35:11.215Z,5.31
2018-01-27T08:36:10.935Z,5.26
2018-01-27T08:37:11.465Z,5.28
2018-01-27T08:38:11.178Z,5.3
2018-01-27T08:39:11.162Z,5.36
2018-01-27T08:40:11.161Z,5.36
2018-01-27T08:41:10.855Z,5.41
2018-01-27T08:42:11.116Z,5.33
2018-01-27T08:43:11.111Z,5.37
2018-01-27T08:44:11.086Z,5.41
2018-01-27T08:45:11.088Z,5.34
2018-01-27T08:46:11.061Z,5.39
2018-01-27T08:47:11.320Z,5.31
2018-01-27T08:48:10.770Z,5.36
2018-01-27T08:49:11.023Z,5.42
2018-01-27T08:50:10.734Z,5.37
2018-01-27T08:51:10.716Z,5.39
2018-01-27T08:52:10.703Z,5.33
2018-01-27T08:53:10.957Z,5.36
2018-01-27T08:54:11.238Z,5.39
2018-01-27T08:55:10.935Z,5.34
2018-01-27T08:56:10.918Z,5.37
2018-01-27T08:57:10.904Z,5.36
2018-01-27T08:58:10.621Z,5.37
2018-01-27T08:59:10.872Z,5.36
2018-01-27T09:00:11.176Z,5.26
2018-01-27T09:01:10.574Z,5.37
2018-01-27T09:02:10.558Z,5.36
2018-01-27T09:03:11.102Z,5.26
2018-01-27T09:04:10.534Z,5.28
2018-01-27T09:05:10.528Z,5.33
2018-01-27T09:06:10.502Z,5.36
2018-01-27T09:07:10.485Z,5.41
2018-01-27T09:08:10.747Z,5.37
2018-01-27T09:09:10.458Z,5.3
2018-01-27T09:10:10.719Z,5.31
2018-01-27T09:11:10.431Z,5.23
2018-01-27T09:12:10.415Z,5.24
2018-01-27T09:13:10.404Z,5.34
2018-01-27T09:14:10.934Z,5.27
2018-01-27T09:15:10.650Z,5.3
2018-01-27T09:16:10.760Z,5.34
2018-01-27T09:17:10.351Z,5.39
2018-01-27T09:18:10.336Z,5.34
2018-01-27T09:19:10.595Z,5.36
2018-01-27T09:20:10.318Z,5.39
2018-01-27T09:21:10.286Z,5.36
2018-01-27T09:22:10.827Z,5.37
2018-01-27T09:23:10.552Z,5.41
2018-01-27T09:24:10.530Z,5.46
2018-01-27T09:25:10.229Z,5.45
2018-01-27T09:26:10.240Z,5.57
2018-01-27T09:27:10.492Z,5.59
2018-01-27T09:28:10.481Z,5.64
2018-01-27T09:29:10.197Z,5.69
2018-01-27T09:30:10.431Z,5.75
2018-01-27T09:31:10.423Z,5.73
2018-01-27T09:32:10.409Z,5.75
2018-01-27T09:33:10.144Z,5.82
2018-01-27T09:34:10.391Z,5.78
2018-01-27T09:35:10.362Z,5.81
2018-01-27T09:36:10.087Z,5.85
2018-01-27T09:37:10.338Z,5.85
2018-01-27T09:38:10.324Z,5.88
2018-01-27T09:39:10.612Z,5.87
2018-01-27T09:40:10.331Z,6.05
2018-01-27T09:41:10.007Z,5.99
2018-01-27T09:42:10.259Z,6.06
2018-01-27T09:43:09.999Z,6.02
2018-01-27T09:44:10.232Z,6.15
2018-01-27T09:45:10.226Z,6.24
2018-01-27T09:46:09.937Z,6.29
2018-01-27T09:47:10.204Z,6.34
2018-01-27T09:48:09.967Z,6.34
2018-01-27T09:49:10.455Z,6.39
2018-01-27T09:50:10.155Z,6.43
2018-01-27T09:51:10.140Z,6.43
2018-01-27T09:52:10.132Z,6.51
2018-01-27T09:53:10.115Z,6.57
2018-01-27T09:54:09.839Z,6.54
2018-01-27T09:55:09.817Z,6.57
2018-01-27T09:56:10.075Z,6.7
2018-01-27T09:57:09.793Z,6.64
2018-01-27T09:58:10.056Z,6.64
2018-01-27T09:59:09.762Z,6.67
2018-01-27T10:00:10.032Z,6.64
2018-01-27T10:01:09.740Z,6.64
2018-01-27T10:02:10.014Z,6.73
2018-01-27T10:03:10.267Z,6.86
2018-01-27T10:04:09.693Z,6.79
2018-01-27T10:05:09.687Z,6.78
2018-01-27T10:06:09.939Z,6.76
2018-01-27T10:07:09.653Z,6.86
2018-01-27T10:08:09.665Z,6.82
2018-01-27T10:09:09.633Z,6.85
2018-01-27T10:10:09.957Z,6.86
2018-01-27T10:11:09.968Z,6.88
2018-01-27T10:12:09.681Z,6.86
2018-01-27T10:13:09.618Z,6.86
2018-01-27T10:14:09.564Z,6.91
2018-01-27T10:15:09.819Z,6.95
2018-01-27T10:16:10.083Z,6.93
2018-01-27T10:17:09.542Z,6.79
2018-01-27T10:18:09.803Z,6.88
2018-01-27T10:19:09.507Z,6.83
2018-01-27T10:20:09.755Z,6.93
2018-01-27T10:21:09.472Z,6.9
2018-01-27T10:22:09.466Z,6.9
2018-01-27T10:23:09.727Z,6.94
2018-01-27T10:24:09.432Z,6.93
2018-01-27T10:25:09.718Z,6.91
2018-01-27T10:26:09.690Z,6.93
2018-01-27T10:27:09.667Z,6.83
2018-01-27T10:28:09.383Z,6.83
2018-01-27T10:29:09.643Z,6.83
2018-01-27T10:30:09.635Z,6.85
2018-01-27T10:31:09.615Z,6.86
2018-01-27T10:32:09.885Z,6.91
2018-01-27T10:33:09.592Z,6.91
2018-01-27T10:34:09.580Z,7
2018-01-27T10:35:09.573Z,7.03
2018-01-27T10:36:09.289Z,7.05
2018-01-27T10:37:09.267Z,7.08
2018-01-27T10:38:09.549Z,7.12
2018-01-27T10:39:09.537Z,7.15
2018-01-27T10:40:09.786Z,7.27
2018-01-27T10:41:09.487Z,7.23
2018-01-27T10:42:09.203Z,7.23
2018-01-27T10:43:09.187Z,7.21
2018-01-27T10:44:09.446Z,7.23
2018-01-27T10:45:09.196Z,7.27
2018-01-27T10:46:09.699Z,7.22
2018-01-27T10:47:09.147Z,7.23
2018-01-27T10:48:09.446Z,7.16
2018-01-27T10:49:09.110Z,7.15
2018-01-27T10:50:09.390Z,7.21
2018-01-27T10:51:09.359Z,7.23
2018-01-27T10:52:09.371Z,7.21
2018-01-27T10:53:09.075Z,7.22
2018-01-27T10:54:09.051Z,7.22
2018-01-27T10:55:09.050Z,7.22
2018-01-27T10:56:09.295Z,7.11
2018-01-27T10:57:09.285Z,7.05
2018-01-27T10:58:09.275Z,7
2018-01-27T10:59:08.988Z,6.98
2018-01-27T11:00:09.245Z,6.83
2018-01-27T11:01:09.248Z,6.95
2018-01-27T11:02:08.945Z,6.86
2018-01-27T11:03:09.210Z,6.88
2018-01-27T11:04:09.195Z,6.9
2018-01-27T11:05:09.182Z,6.86
2018-01-27T11:06:09.441Z,6.86
2018-01-27T11:07:09.439Z,6.9
2018-01-27T11:08:08.871Z,6.91
2018-01-27T11:09:09.437Z,6.91
2018-01-27T11:10:09.126Z,6.88
2018-01-27T11:11:08.835Z,6.88
2018-01-27T11:12:09.392Z,6.88
2018-01-27T11:13:09.080Z,6.82
2018-01-27T11:14:08.792Z,6.82
2018-01-27T11:15:09.334Z,6.82
2018-01-27T11:16:08.769Z,6.76
2018-01-27T11:17:09.035Z,6.75
2018-01-27T11:18:09.045Z,6.75
2018-01-27T11:19:08.731Z,6.75
2018-01-27T11:20:08.988Z,6.73
2018-01-27T11:21:08.989Z,6.73
2018-01-27T11:22:08.695Z,6.76
2018-01-27T11:23:08.956Z,6.9
2018-01-27T11:24:08.942Z,6.83
2018-01-27T11:25:09.216Z,6.94
2018-01-27T11:26:08.931Z,6.88
2018-01-27T11:27:08.630Z,6.8
2018-01-27T11:28:08.888Z,6.82
2018-01-27T11:29:08.874Z,6.9
2018-01-27T11:30:08.888Z,6.95
2018-01-27T11:31:08.848Z,6.93
2018-01-27T11:32:08.836Z,6.86
2018-01-27T11:33:09.099Z,6.82
2018-01-27T11:34:08.812Z,6.82
2018-01-27T11:35:08.533Z,6.83
2018-01-27T11:36:08.796Z,6.91
2018-01-27T11:37:08.511Z,6.82
2018-01-27T11:38:08.750Z,6.76
2018-01-27T11:39:08.745Z,6.76
2018-01-27T11:40:08.741Z,6.67
2018-01-27T11:41:08.713Z,6.57
2018-01-27T11:42:08.436Z,6.55
2018-01-27T11:43:08.707Z,6.51
2018-01-27T11:44:08.673Z,6.42
2018-01-27T11:45:08.427Z,6.42
2018-01-27T11:46:08.647Z,6.28
2018-01-27T11:47:08.650Z,6.37
2018-01-27T11:48:08.622Z,6.25
2018-01-27T11:49:08.339Z,6.39
2018-01-27T11:50:08.593Z,6.36
2018-01-27T11:51:08.318Z,6.34
2018-01-27T11:52:08.567Z,6.33
2018-01-27T11:53:08.856Z,6.36
2018-01-27T11:54:08.277Z,6.28
2018-01-27T11:55:08.275Z,6.37
2018-01-27T11:56:08.242Z,6.4
2018-01-27T11:57:08.518Z,6.29
2018-01-27T11:58:08.491Z,6.33
2018-01-27T11:59:08.211Z,6.28
2018-01-27T12:00:08.227Z,6.25
2018-01-27T12:01:08.177Z,6.17
2018-01-27T12:02:08.163Z,6.14
2018-01-27T12:03:08.420Z,6.15
2018-01-27T12:04:08.139Z,6.07
2018-01-27T12:05:08.124Z,6.03
2018-01-27T12:06:08.388Z,5.96
2018-01-27T12:07:08.368Z,6.06
2018-01-27T12:08:08.081Z,5.95
2018-01-27T12:09:08.387Z,5.85
2018-01-27T12:10:08.596Z,5.92
2018-01-27T12:11:08.044Z,5.95
2018-01-27T12:12:08.028Z,5.85
2018-01-27T12:13:08.020Z,5.92
2018-01-27T12:14:08.566Z,5.92
2018-01-27T12:15:07.994Z,5.92
2018-01-27T12:16:08.266Z,5.99
2018-01-27T12:17:07.959Z,6.03
2018-01-27T12:18:07.946Z,6.03
2018-01-27T12:19:07.933Z,6.03
2018-01-27T12:20:08.190Z,6.07
2018-01-27T12:21:08.462Z,6
2018-01-27T12:22:07.891Z,6.02
2018-01-27T12:23:08.433Z,5.98
2018-01-27T12:24:07.877Z,5.91
2018-01-27T12:25:08.124Z,5.89
2018-01-27T12:26:07.842Z,5.89
2018-01-27T12:27:07.822Z,5.85
2018-01-27T12:28:07.810Z,6.02
2018-01-27T12:29:08.067Z,5.92
2018-01-27T12:30:08.053Z,5.88
2018-01-27T12:31:07.798Z,6
2018-01-27T12:32:08.032Z,5.96
2018-01-27T12:33:08.011Z,5.96
2018-01-27T12:34:07.733Z,6.05
2018-01-27T12:35:07.711Z,6.21
2018-01-27T12:36:07.973Z,6.2
2018-01-27T12:37:07.961Z,6.31
2018-01-27T12:38:08.216Z,6.26
2018-01-27T12:39:07.664Z,6.34
2018-01-27T12:40:07.647Z,6.31
2018-01-27T12:41:07.917Z,6.26
2018-01-27T12:42:07.887Z,6.31
2018-01-27T12:43:07.876Z,6.33
2018-01-27T12:44:07.890Z,6.33
2018-01-27T12:45:07.579Z,6.34
2018-01-27T12:46:07.565Z,6.21
2018-01-27T12:47:07.566Z,6.24
2018-01-27T12:48:07.540Z,6.4
2018-01-27T12:49:07.795Z,6.29
2018-01-27T12:50:07.797Z,6.4
2018-01-27T12:51:07.510Z,6.37
2018-01-27T12:52:07.485Z,6.44
2018-01-27T12:53:07.483Z,6.46
2018-01-27T12:54:07.731Z,6.43
2018-01-27T12:55:07.737Z,6.57
2018-01-27T12:56:07.994Z,6.57
2018-01-27T12:57:08.032Z,6.52
2018-01-27T12:58:07.425Z,6.58
2018-01-27T12:59:07.387Z,6.55
2018-01-27T13:00:07.405Z,6.49
2018-01-27T13:01:07.932Z,6.52
2018-01-27T13:02:07.363Z,6.57
2018-01-27T13:03:07.363Z,6.55
2018-01-27T13:04:07.591Z,6.6
2018-01-27T13:05:07.323Z,6.62
2018-01-27T13:06:07.422Z,6.62
2018-01-27T13:07:07.555Z,6.55
2018-01-27T13:08:07.297Z,6.61
2018-01-27T13:09:07.280Z,6.58
2018-01-27T13:10:07.511Z,6.52
2018-01-27T13:11:07.243Z,6.55
2018-01-27T13:12:07.257Z,6.43
2018-01-27T13:13:07.215Z,6.46
2018-01-27T13:14:07.224Z,6.42
2018-01-27T13:15:07.751Z,6.39
2018-01-27T13:16:07.187Z,6.37
2018-01-27T13:17:07.723Z,6.37
2018-01-27T13:18:07.409Z,6.36
2018-01-27T13:19:07.680Z,6.25
2018-01-27T13:20:07.389Z,6.29
2018-01-27T13:21:07.121Z,6.31
2018-01-27T13:22:07.620Z,6.31